sensor_id;sensor_type;location;lat;lon;timestamp;pressure;altitude;pressure_sealevel;temperature;humidity
10470;BME280;5282;47.052;15.458;2023-09-19T00:00:20;97053.78;;;19.25;100.00
10470;BME280;5282;47.052;15.458;2023-09-19T00:02:52;97055.31;;;19.21;100.00
10470;BME280;5282;47.052;15.458;2023-09-19T00:05:21;97054.13;;;19.17;100.00
10470;BME280;5282;47.052;15.458;2023-09-19T00:07:50;97059.22;;;19.13;100.00
10470;BME280;5282;47.052;15.458;2023-09-19T00:10:19;97058.84;;;19.09;100.00
10470;BME280;5282;47.052;15.458;2023-09-19T00:12:47;97064.78;;;19.06;100.00
10470;BME280;5282;47.052;15.458;2023-09-19T00:15:15;97060.63;;;19.04;100.00
10470;BME280;5282;47.052;15.458;2023-09-19T00:17:43;97058.34;;;19.01;100.00
10470;BME280;5282;47.052;15.458;2023-09-19T00:20:11;97060.38;;;19.05;100.00
10470;BME280;5282;47.052;15.458;2023-09-19T00:22:40;97072.25;;;18.99;100.00
10470;BME280;5282;47.052;15.458;2023-09-19T00:25:08;97075.44;;;18.96;100.00
10470;BME280;5282;47.052;15.458;2023-09-19T00:27:37;97065.19;;;18.91;100.00
10470;BME280;5282;47.052;15.458;2023-09-19T00:30:08;97068.53;;;18.93;100.00
10470;BME280;5282;47.052;15.458;2023-09-19T00:32:41;97064.94;;;18.93;100.00
10470;BME280;5282;47.052;15.458;2023-09-19T00:35:10;97055.34;;;18.90;100.00
10470;BME280;5282;47.052;15.458;2023-09-19T00:37:37;97068.38;;;18.88;100.00
10470;BME280;5282;47.052;15.458;2023-09-19T00:40:06;97062.56;;;18.85;100.00
10470;BME280;5282;47.052;15.458;2023-09-19T00:42:36;97072.84;;;18.83;100.00
10470;BME280;5282;47.052;15.458;2023-09-19T00:45:04;97065.75;;;18.81;100.00
10470;BME280;5282;47.052;15.458;2023-09-19T00:47:32;97066.81;;;18.80;100.00
10470;BME280;5282;47.052;15.458;2023-09-19T00:50:00;97070.63;;;18.79;100.00
10470;BME280;5282;47.052;15.458;2023-09-19T00:52:29;97074.63;;;18.77;100.00
10470;BME280;5282;47.052;15.458;2023-09-19T00:54:57;97081.97;;;18.76;100.00
10470;BME280;5282;47.052;15.458;2023-09-19T00:57:25;97077.13;;;18.78;100.00
10470;BME280;5282;47.052;15.458;2023-09-19T00:59:53;97074.84;;;18.75;100.00
10470;BME280;5282;47.052;15.458;2023-09-19T01:02:21;97064.19;;;18.74;100.00
10470;BME280;5282;47.052;15.458;2023-09-19T01:04:48;97070.91;;;18.71;100.00
10470;BME280;5282;47.052;15.458;2023-09-19T01:07:17;97079.09;;;18.71;100.00
10470;BME280;5282;47.052;15.458;2023-09-19T01:09:44;97075.09;;;18.74;100.00
10470;BME280;5282;47.052;15.458;2023-09-19T01:12:16;97080.31;;;18.75;100.00
10470;BME280;5282;47.052;15.458;2023-09-19T01:14:57;97080.56;;;18.74;100.00
10470;BME280;5282;47.052;15.458;2023-09-19T01:17:34;97082.88;;;18.70;100.00
10470;BME280;5282;47.052;15.458;2023-09-19T01:20:19;97085.03;;;18.68;100.00
10470;BME280;5282;47.052;15.458;2023-09-19T01:22:58;97086.09;;;18.67;100.00
10470;BME280;5282;47.052;15.458;2023-09-19T01:25:52;97080.03;;;18.65;100.00
10470;BME280;5282;47.052;15.458;2023-09-19T01:28:30;97086.53;;;18.64;100.00
10470;BME280;5282;47.052;15.458;2023-09-19T01:31:06;97085.50;;;18.65;100.00
10470;BME280;5282;47.052;15.458;2023-09-19T01:33:54;97076.25;;;18.66;100.00
10470;BME280;5282;47.052;15.458;2023-09-19T01:36:23;97075.88;;;18.62;100.00
10470;BME280;5282;47.052;15.458;2023-09-19T01:38:50;97081.34;;;18.62;100.00
10470;BME280;5282;47.052;15.458;2023-09-19T01:41:23;97077.75;;;18.62;100.00
10470;BME280;5282;47.052;15.458;2023-09-19T01:43:52;97077.16;;;18.60;100.00
10470;BME280;5282;47.052;15.458;2023-09-19T01:46:25;97080.50;;;18.62;100.00
10470;BME280;5282;47.052;15.458;2023-09-19T01:49:03;97078.28;;;18.71;100.00
10470;BME280;5282;47.052;15.458;2023-09-19T01:51:40;97083.47;;;18.60;100.00
10470;BME280;5282;47.052;15.458;2023-09-19T01:54:12;97091.84;;;18.59;100.00
10470;BME280;5282;47.052;15.458;2023-09-19T01:56:50;97088.75;;;18.55;100.00
10470;BME280;5282;47.052;15.458;2023-09-19T01:59:24;97095.66;;;18.58;100.00
10470;BME280;5282;47.052;15.458;2023-09-19T02:01:54;97093.50;;;18.60;100.00
10470;BME280;5282;47.052;15.458;2023-09-19T02:04:23;97102.75;;;18.59;100.00
10470;BME280;5282;47.052;15.458;2023-09-19T02:06:51;97094.19;;;18.55;100.00
10470;BME280;5282;47.052;15.458;2023-09-19T02:09:18;97097.53;;;18.57;100.00
10470;BME280;5282;47.052;15.458;2023-09-19T02:11:45;97103.59;;;18.59;100.00
10470;BME280;5282;47.052;15.458;2023-09-19T02:14:12;97099.19;;;18.58;100.00
10470;BME280;5282;47.052;15.458;2023-09-19T02:16:41;97111.53;;;18.61;100.00
10470;BME280;5282;47.052;15.458;2023-09-19T02:19:12;97112.59;;;18.60;100.00
10470;BME280;5282;47.052;15.458;2023-09-19T02:21:40;97120.78;;;18.60;100.00
10470;BME280;5282;47.052;15.458;2023-09-19T02:24:08;97123.75;;;18.58;100.00
10470;BME280;5282;47.052;15.458;2023-09-19T02:26:37;97118.75;;;18.55;100.00
10470;BME280;5282;47.052;15.458;2023-09-19T02:29:04;97126.69;;;18.57;100.00
10470;BME280;5282;47.052;15.458;2023-09-19T02:31:31;97121.47;;;18.55;100.00
10470;BME280;5282;47.052;15.458;2023-09-19T02:33:58;97115.56;;;18.58;100.00
10470;BME280;5282;47.052;15.458;2023-09-19T02:36:28;97115.19;;;18.55;100.00
10470;BME280;5282;47.052;15.458;2023-09-19T02:38:55;97121.47;;;18.55;100.00
10470;BME280;5282;47.052;15.458;2023-09-19T02:41:22;97123.56;;;18.53;100.00
10470;BME280;5282;47.052;15.458;2023-09-19T02:43:55;97138.50;;;18.50;100.00
10470;BME280;5282;47.052;15.458;2023-09-19T02:46:22;97147.28;;;18.53;100.00
10470;BME280;5282;47.052;15.458;2023-09-19T02:48:49;97136.38;;;18.53;100.00
10470;BME280;5282;47.052;15.458;2023-09-19T02:51:16;97141.22;;;18.50;100.00
10470;BME280;5282;47.052;15.458;2023-09-19T02:53:49;97147.38;;;18.46;100.00
10470;BME280;5282;47.052;15.458;2023-09-19T02:56:17;97145.00;;;18.49;100.00
10470;BME280;5282;47.052;15.458;2023-09-19T02:58:45;97149.78;;;18.54;100.00
10470;BME280;5282;47.052;15.458;2023-09-19T03:01:13;97156.53;;;18.52;100.00
10470;BME280;5282;47.052;15.458;2023-09-19T03:03:40;97159.00;;;18.53;100.00
10470;BME280;5282;47.052;15.458;2023-09-19T03:06:08;97155.03;;;18.56;100.00
10470;BME280;5282;47.052;15.458;2023-09-19T03:08:36;97157.13;;;18.54;100.00
10470;BME280;5282;47.052;15.458;2023-09-19T03:11:06;97162.44;;;18.48;100.00
10470;BME280;5282;47.052;15.458;2023-09-19T03:13:37;97151.84;;;18.40;100.00
10470;BME280;5282;47.052;15.458;2023-09-19T03:16:05;97156.91;;;18.37;100.00
10470;BME280;5282;47.052;15.458;2023-09-19T03:18:34;97150.84;;;18.34;100.00
10470;BME280;5282;47.052;15.458;2023-09-19T03:21:01;97162.25;;;18.25;100.00
10470;BME280;5282;47.052;15.458;2023-09-19T03:23:29;97160.59;;;18.24;100.00
10470;BME280;5282;47.052;15.458;2023-09-19T03:25:56;97164.41;;;18.23;100.00
10470;BME280;5282;47.052;15.458;2023-09-19T03:28:25;97166.91;;;18.24;100.00
10470;BME280;5282;47.052;15.458;2023-09-19T03:31:00;97175.31;;;18.23;100.00
10470;BME280;5282;47.052;15.458;2023-09-19T03:33:28;97174.53;;;18.15;100.00
10470;BME280;5282;47.052;15.458;2023-09-19T03:35:57;97169.06;;;18.15;100.00
10470;BME280;5282;47.052;15.458;2023-09-19T03:38:25;97167.13;;;18.23;100.00
10470;BME280;5282;47.052;15.458;2023-09-19T03:40:52;97170.59;;;18.11;100.00
10470;BME280;5282;47.052;15.458;2023-09-19T03:43:18;97168.31;;;18.08;100.00
10470;BME280;5282;47.052;15.458;2023-09-19T03:45:47;97164.16;;;18.06;100.00
10470;BME280;5282;47.052;15.458;2023-09-19T03:48:14;97174.44;;;18.03;100.00
10470;BME280;5282;47.052;15.458;2023-09-19T03:50:41;97162.94;;;18.01;100.00
10470;BME280;5282;47.052;15.458;2023-09-19T03:53:09;97164.97;;;18.06;100.00
10470;BME280;5282;47.052;15.458;2023-09-19T03:55:36;97162.03;;;18.08;100.00
10470;BME280;5282;47.052;15.458;2023-09-19T03:58:04;97165.16;;;18.11;100.00
10470;BME280;5282;47.052;15.458;2023-09-19T04:00:31;97170.00;;;18.09;100.00
10470;BME280;5282;47.052;15.458;2023-09-19T04:03:01;97172.53;;;18.04;100.00
10470;BME280;5282;47.052;15.458;2023-09-19T04:05:31;97168.00;;;17.98;100.00
10470;BME280;5282;47.052;15.458;2023-09-19T04:07:59;97172.81;;;17.96;100.00
10470;BME280;5282;47.052;15.458;2023-09-19T04:10:26;97176.81;;;17.93;100.00
10470;BME280;5282;47.052;15.458;2023-09-19T04:12:55;97181.66;;;17.91;100.00
10470;BME280;5282;47.052;15.458;2023-09-19T04:15:23;97181.78;;;17.96;100.00
10470;BME280;5282;47.052;15.458;2023-09-19T04:17:50;97184.75;;;17.95;100.00
10470;BME280;5282;47.052;15.458;2023-09-19T04:20:19;97193.56;;;17.97;100.00
10470;BME280;5282;47.052;15.458;2023-09-19T04:22:48;97206.53;;;17.95;100.00
10470;BME280;5282;47.052;15.458;2023-09-19T04:25:15;97204.06;;;17.93;100.00
10470;BME280;5282;47.052;15.458;2023-09-19T04:27:42;97215.97;;;17.99;100.00
10470;BME280;5282;47.052;15.458;2023-09-19T04:30:11;97211.56;;;17.98;100.00
10470;BME280;5282;47.052;15.458;2023-09-19T04:32:38;97222.25;;;17.93;100.00
10470;BME280;5282;47.052;15.458;2023-09-19T04:35:07;97218.53;;;17.87;100.00
10470;BME280;5282;47.052;15.458;2023-09-19T04:37:40;97228.00;;;17.84;100.00
10470;BME280;5282;47.052;15.458;2023-09-19T04:40:08;97233.25;;;17.79;100.00
10470;BME280;5282;47.052;15.458;2023-09-19T04:42:40;97234.53;;;17.77;100.00
10470;BME280;5282;47.052;15.458;2023-09-19T04:45:07;97240.84;;;17.77;100.00
10470;BME280;5282;47.052;15.458;2023-09-19T04:47:36;97248.59;;;17.73;100.00
10470;BME280;5282;47.052;15.458;2023-09-19T04:50:06;97251.53;;;17.72;100.00
10470;BME280;5282;47.052;15.458;2023-09-19T04:52:33;97249.47;;;17.67;100.00
10470;BME280;5282;47.052;15.458;2023-09-19T04:55:03;97254.31;;;17.65;100.00
10470;BME280;5282;47.052;15.458;2023-09-19T04:57:30;97261.66;;;17.65;100.00
10470;BME280;5282;47.052;15.458;2023-09-19T04:59:58;97270.41;;;17.67;100.00
10470;BME280;5282;47.052;15.458;2023-09-19T05:02:25;97278.81;;;17.65;100.00
10470;BME280;5282;47.052;15.458;2023-09-19T05:04:52;97274.41;;;17.64;100.00
10470;BME280;5282;47.052;15.458;2023-09-19T05:07:21;97277.38;;;17.63;100.00
10470;BME280;5282;47.052;15.458;2023-09-19T05:09:52;97281.75;;;17.64;100.00
10470;BME280;5282;47.052;15.458;2023-09-19T05:12:20;97285.97;;;17.60;100.00
10470;BME280;5282;47.052;15.458;2023-09-19T05:14:47;97286.22;;;17.51;100.00
10470;BME280;5282;47.052;15.458;2023-09-19T05:17:14;97282.66;;;17.51;100.00
10470;BME280;5282;47.052;15.458;2023-09-19T05:19:42;97285.59;;;17.49;100.00
10470;BME280;5282;47.052;15.458;2023-09-19T05:22:09;97291.09;;;17.42;100.00
10470;BME280;5282;47.052;15.458;2023-09-19T05:24:38;97291.31;;;17.41;100.00
10470;BME280;5282;47.052;15.458;2023-09-19T05:27:05;97295.47;;;17.43;100.00
10470;BME280;5282;47.052;15.458;2023-09-19T05:29:34;97284.97;;;17.47;100.00
10470;BME280;5282;47.052;15.458;2023-09-19T05:32:01;97293.16;;;17.47;100.00
10470;BME280;5282;47.052;15.458;2023-09-19T05:34:29;97299.44;;;17.48;100.00
10470;BME280;5282;47.052;15.458;2023-09-19T05:36:56;97289.59;;;17.47;100.00
10470;BME280;5282;47.052;15.458;2023-09-19T05:39:23;97294.19;;;17.46;100.00
10470;BME280;5282;47.052;15.458;2023-09-19T05:41:50;97293.16;;;17.47;100.00
10470;BME280;5282;47.052;15.458;2023-09-19T05:44:17;97293.16;;;17.47;100.00
10470;BME280;5282;47.052;15.458;2023-09-19T05:46:46;97300.47;;;17.53;100.00
10470;BME280;5282;47.052;15.458;2023-09-19T05:49:13;97299.53;;;17.66;100.00
10470;BME280;5282;47.052;15.458;2023-09-19T05:51:41;97293.91;;;17.61;100.00
10470;BME280;5282;47.052;15.458;2023-09-19T05:54:08;97296.63;;;17.61;100.00
10470;BME280;5282;47.052;15.458;2023-09-19T05:56:36;97297.63;;;17.67;100.00
10470;BME280;5282;47.052;15.458;2023-09-19T05:59:03;97286.31;;;17.70;100.00
10470;BME280;5282;47.052;15.458;2023-09-19T06:01:31;97300.97;;;17.69;100.00
10470;BME280;5282;47.052;15.458;2023-09-19T06:04:01;97298.06;;;17.70;100.00
10470;BME280;5282;47.052;15.458;2023-09-19T06:06:28;97297.59;;;17.73;100.00
10470;BME280;5282;47.052;15.458;2023-09-19T06:08:55;97298.84;;;17.78;100.00
10470;BME280;5282;47.052;15.458;2023-09-19T06:11:23;97297.56;;;17.80;100.00
10470;BME280;5282;47.052;15.458;2023-09-19T06:13:52;97305.91;;;17.85;100.00
10470;BME280;5282;47.052;15.458;2023-09-19T06:16:18;97299.56;;;17.92;100.00
10470;BME280;5282;47.052;15.458;2023-09-19T06:18:46;97311.31;;;17.92;100.00
10470;BME280;5282;47.052;15.458;2023-09-19T06:21:19;97317.56;;;17.93;100.00
10470;BME280;5282;47.052;15.458;2023-09-19T06:23:46;97325.97;;;17.98;100.00
10470;BME280;5282;47.052;15.458;2023-09-19T06:26:14;97327.63;;;17.99;100.00
10470;BME280;5282;47.052;15.458;2023-09-19T06:28:41;97327.03;;;17.97;100.00
10470;BME280;5282;47.052;15.458;2023-09-19T06:31:08;97328.41;;;18.06;100.00
10470;BME280;5282;47.052;15.458;2023-09-19T06:33:35;97331.56;;;18.03;100.00
10470;BME280;5282;47.052;15.458;2023-09-19T06:36:04;97343.97;;;17.99;100.00
10470;BME280;5282;47.052;15.458;2023-09-19T06:38:32;97343.75;;;17.94;100.00
10470;BME280;5282;47.052;15.458;2023-09-19T06:41:02;97350.03;;;18.01;100.00
10470;BME280;5282;47.052;15.458;2023-09-19T06:43:32;97340.38;;;18.05;100.00
10470;BME280;5282;47.052;15.458;2023-09-19T06:46:00;97349.97;;;18.08;100.00
10470;BME280;5282;47.052;15.458;2023-09-19T06:48:27;97355.84;;;18.11;100.00
10470;BME280;5282;47.052;15.458;2023-09-19T06:50:56;97361.84;;;18.20;100.00
10470;BME280;5282;47.052;15.458;2023-09-19T06:53:24;97365.75;;;18.31;100.00
10470;BME280;5282;47.052;15.458;2023-09-19T06:55:52;97380.16;;;18.38;100.00
10470;BME280;5282;47.052;15.458;2023-09-19T06:58:19;97386.31;;;18.27;100.00
10470;BME280;5282;47.052;15.458;2023-09-19T07:00:46;97391.13;;;18.25;100.00
10470;BME280;5282;47.052;15.458;2023-09-19T07:03:15;97388.66;;;18.23;100.00
10470;BME280;5282;47.052;15.458;2023-09-19T07:05:47;97381.19;;;18.12;100.00
10470;BME280;5282;47.052;15.458;2023-09-19T07:08:17;97383.59;;;18.27;100.00
10470;BME280;5282;47.052;15.458;2023-09-19T07:10:44;97388.50;;;18.43;100.00
10470;BME280;5282;47.052;15.458;2023-09-19T07:13:15;97382.44;;;18.41;100.00
10470;BME280;5282;47.052;15.458;2023-09-19T07:15:44;97386.84;;;18.42;100.00
10470;BME280;5282;47.052;15.458;2023-09-19T07:18:15;97382.44;;;18.41;100.00
10470;BME280;5282;47.052;15.458;2023-09-19T07:20:43;97388.50;;;18.43;100.00
10470;BME280;5282;47.052;15.458;2023-09-19T07:23:14;97395.16;;;18.47;100.00
10470;BME280;5282;47.052;15.458;2023-09-19T07:25:42;97402.28;;;18.48;100.00
10470;BME280;5282;47.052;15.458;2023-09-19T07:28:09;97398.13;;;18.46;100.00
10470;BME280;5282;47.052;15.458;2023-09-19T07:30:37;97411.97;;;18.44;100.00
10470;BME280;5282;47.052;15.458;2023-09-19T07:33:05;97420.16;;;18.44;100.00
10470;BME280;5282;47.052;15.458;2023-09-19T07:35:32;97429.34;;;18.50;100.00
10470;BME280;5282;47.052;15.458;2023-09-19T07:37:59;97427.44;;;18.50;100.00
10470;BME280;5282;47.052;15.458;2023-09-19T07:40:27;97425.56;;;18.51;100.00
10470;BME280;5282;47.052;15.458;2023-09-19T07:42:54;97432.06;;;18.50;100.00
10470;BME280;5282;47.052;15.458;2023-09-19T07:45:21;97419.69;;;18.47;100.00
10470;BME280;5282;47.052;15.458;2023-09-19T07:47:52;97432.28;;;18.48;100.00
10470;BME280;5282;47.052;15.458;2023-09-19T07:50:19;97432.22;;;18.55;100.00
10470;BME280;5282;47.052;15.458;2023-09-19T07:52:46;97436.84;;;18.55;100.00
10470;BME280;5282;47.052;15.458;2023-09-19T07:55:13;97438.53;;;18.56;100.00
10470;BME280;5282;47.052;15.458;2023-09-19T07:57:42;97439.75;;;18.60;100.00
10470;BME280;5282;47.052;15.458;2023-09-19T08:00:10;97433.06;;;18.81;100.00
10470;BME280;5282;47.052;15.458;2023-09-19T08:02:39;97445.50;;;19.02;100.00
10470;BME280;5282;47.052;15.458;2023-09-19T08:05:09;97446.09;;;19.04;100.00
10470;BME280;5282;47.052;15.458;2023-09-19T08:07:37;97441.88;;;19.08;100.00
10470;BME280;5282;47.052;15.458;2023-09-19T08:10:05;97450.06;;;19.08;100.00
10470;BME280;5282;47.052;15.458;2023-09-19T08:12:33;97447.66;;;19.19;100.00
10470;BME280;5282;47.052;15.458;2023-09-19T08:15:01;97448.59;;;19.31;100.00
10470;BME280;5282;47.052;15.458;2023-09-19T08:17:28;97441.56;;;19.42;100.00
10470;BME280;5282;47.052;15.458;2023-09-19T08:19:55;97445.69;;;19.63;100.00
10470;BME280;5282;47.052;15.458;2023-09-19T08:22:24;97453.97;;;19.75;100.00
10470;BME280;5282;47.052;15.458;2023-09-19T08:24:51;97451.31;;;19.68;100.00
10470;BME280;5282;47.052;15.458;2023-09-19T08:27:18;97461.00;;;19.90;100.00
10470;BME280;5282;47.052;15.458;2023-09-19T08:29:44;97448.50;;;20.12;100.00
10470;BME280;5282;47.052;15.458;2023-09-19T08:32:12;97448.81;;;20.04;100.00
10470;BME280;5282;47.052;15.458;2023-09-19T08:34:39;97446.84;;;20.11;100.00
10470;BME280;5282;47.052;15.458;2023-09-19T08:37:07;97450.06;;;20.20;100.00
10470;BME280;5282;47.052;15.458;2023-09-19T08:39:35;97446.41;;;20.26;100.00
10470;BME280;5282;47.052;15.458;2023-09-19T08:42:03;97450.88;;;20.51;100.00
10470;BME280;5282;47.052;15.458;2023-09-19T08:44:36;97450.78;;;20.70;100.00
10470;BME280;5282;47.052;15.458;2023-09-19T08:47:09;97457.16;;;20.82;100.00
10470;BME280;5282;47.052;15.458;2023-09-19T08:49:41;97457.47;;;20.74;100.00
10470;BME280;5282;47.052;15.458;2023-09-19T08:52:20;97453.75;;;20.99;100.00
10470;BME280;5282;47.052;15.458;2023-09-19T08:54:52;97452.53;;;21.18;100.00
10470;BME280;5282;47.052;15.458;2023-09-19T08:57:19;97452.66;;;21.35;100.00
10470;BME280;5282;47.052;15.458;2023-09-19T08:59:48;97455.88;;;21.44;100.00
10470;BME280;5282;47.052;15.458;2023-09-19T09:02:16;97466.69;;;21.63;100.00
10470;BME280;5282;47.052;15.458;2023-09-19T09:04:45;97467.66;;;21.68;100.00
10470;BME280;5282;47.052;15.458;2023-09-19T09:07:14;97461.06;;;21.81;100.00
10470;BME280;5282;47.052;15.458;2023-09-19T09:09:42;97465.47;;;21.82;100.00
10470;BME280;5282;47.052;15.458;2023-09-19T09:12:12;97469.22;;;22.05;100.00
10470;BME280;5282;47.052;15.458;2023-09-19T09:14:39;97451.31;;;22.14;100.00
10470;BME280;5282;47.052;15.458;2023-09-19T09:17:07;97465.97;;;22.20;100.00
10470;BME280;5282;47.052;15.458;2023-09-19T09:19:34;97462.91;;;22.33;100.00
10470;BME280;5282;47.052;15.458;2023-09-19T09:22:08;97462.50;;;22.25;100.00
10470;BME280;5282;47.052;15.458;2023-09-19T09:24:36;97478.22;;;22.17;100.00
10470;BME280;5282;47.052;15.458;2023-09-19T09:27:05;97470.75;;;22.13;100.00
10470;BME280;5282;47.052;15.458;2023-09-19T09:29:43;97476.97;;;22.08;100.00
10470;BME280;5282;47.052;15.458;2023-09-19T09:32:22;97476.16;;;21.96;100.00
10470;BME280;5282;47.052;15.458;2023-09-19T09:34:52;97470.28;;;22.04;100.00
10470;BME280;5282;47.052;15.458;2023-09-19T09:37:19;97462.97;;;22.22;100.00
10470;BME280;5282;47.052;15.458;2023-09-19T09:39:51;97470.78;;;22.01;100.00
10470;BME280;5282;47.052;15.458;2023-09-19T09:42:30;97480.28;;;21.69;100.00
10470;BME280;5282;47.052;15.458;2023-09-19T09:45:17;97482.41;;;21.79;100.00
10470;BME280;5282;47.052;15.458;2023-09-19T09:47:46;97486.16;;;22.02;100.00
10470;BME280;5282;47.052;15.458;2023-09-19T09:50:26;97492.13;;;21.99;100.00
10470;BME280;5282;47.052;15.458;2023-09-19T09:53:20;97489.00;;;22.07;100.00
10470;BME280;5282;47.052;15.458;2023-09-19T09:56:00;97480.34;;;21.86;100.00
10470;BME280;5282;47.052;15.458;2023-09-19T09:58:31;97479.38;;;21.93;100.00
10470;BME280;5282;47.052;15.458;2023-09-19T10:00:59;97491.66;;;22.02;100.00
10470;BME280;5282;47.052;15.458;2023-09-19T10:03:35;97488.91;;;22.02;100.00
10470;BME280;5282;47.052;15.458;2023-09-19T10:06:07;97486.56;;;22.23;100.00
10470;BME280;5282;47.052;15.458;2023-09-19T10:08:58;97488.59;;;22.56;100.00
10470;BME280;5282;47.052;15.458;2023-09-19T10:11:30;97497.59;;;22.86;100.00
10470;BME280;5282;47.052;15.458;2023-09-19T10:14:00;97496.31;;;22.88;100.00
10470;BME280;5282;47.052;15.458;2023-09-19T10:16:34;97496.22;;;23.00;100.00
10470;BME280;5282;47.052;15.458;2023-09-19T10:19:07;97490.72;;;23.00;100.00
10470;BME280;5282;47.052;15.458;2023-09-19T10:21:36;97489.34;;;23.32;100.00
10470;BME280;5282;47.052;15.458;2023-09-19T10:24:05;97498.19;;;23.56;100.00
10470;BME280;5282;47.052;15.458;2023-09-19T10:26:36;97498.75;;;23.75;100.00
10470;BME280;5282;47.052;15.458;2023-09-19T10:29:06;97502.75;;;24.07;100.00
10470;BME280;5282;47.052;15.458;2023-09-19T10:31:38;97502.25;;;24.10;100.00
10470;BME280;5282;47.052;15.458;2023-09-19T10:34:08;97505.50;;;24.07;100.00
10470;BME280;5282;47.052;15.458;2023-09-19T10:36:36;97494.22;;;23.86;100.00
10470;BME280;5282;47.052;15.458;2023-09-19T10:39:05;97489.97;;;23.95;100.00
10470;BME280;5282;47.052;15.458;2023-09-19T10:41:34;97489.63;;;24.14;100.00
10470;BME280;5282;47.052;15.458;2023-09-19T10:44:04;97484.78;;;24.21;100.00
10470;BME280;5282;47.052;15.458;2023-09-19T10:46:32;97487.47;;;24.16;100.00
10470;BME280;5282;47.052;15.458;2023-09-19T10:49:01;97493.28;;;24.42;100.00
10470;BME280;5282;47.052;15.458;2023-09-19T10:51:33;97486.22;;;24.78;100.00
10470;BME280;5282;47.052;15.458;2023-09-19T10:54:09;97485.09;;;25.07;100.00
10470;BME280;5282;47.052;15.458;2023-09-19T10:56:42;97479.41;;;25.19;100.00
10470;BME280;5282;47.052;15.458;2023-09-19T10:59:14;97478.28;;;25.52;100.00
10470;BME280;5282;47.052;15.458;2023-09-19T11:01:44;97481.59;;;25.54;100.00
10470;BME280;5282;47.052;15.458;2023-09-19T11:04:24;97471.72;;;25.59;100.00
10470;BME280;5282;47.052;15.458;2023-09-19T11:07:03;97474.28;;;25.76;100.00
10470;BME280;5282;47.052;15.458;2023-09-19T11:09:44;97474.59;;;25.84;100.00
10470;BME280;5282;47.052;15.458;2023-09-19T11:12:12;97478.81;;;25.97;100.00
10470;BME280;5282;47.052;15.458;2023-09-19T11:15:08;97478.00;;;26.07;95.10
10470;BME280;5282;47.052;15.458;2023-09-19T11:17:36;97480.09;;;25.79;98.37
10470;BME280;5282;47.052;15.458;2023-09-19T11:20:23;97481.31;;;26.04;98.22
10470;BME280;5282;47.052;15.458;2023-09-19T11:23:20;97471.44;;;26.18;94.37
10470;BME280;5282;47.052;15.458;2023-09-19T11:25:50;97476.22;;;26.33;95.43
10470;BME280;5282;47.052;15.458;2023-09-19T11:28:32;97473.75;;;26.47;86.70
10470;BME280;5282;47.052;15.458;2023-09-19T11:30:59;97482.31;;;26.61;87.16
10470;BME280;5282;47.052;15.458;2023-09-19T11:33:46;97467.13;;;26.48;82.65
10470;BME280;5282;47.052;15.458;2023-09-19T11:36:16;97463.28;;;26.70;90.47
10470;BME280;5282;47.052;15.458;2023-09-19T11:38:57;97471.28;;;26.72;82.99
10470;BME280;5282;47.052;15.458;2023-09-19T11:41:40;97465.56;;;26.84;87.46
10470;BME280;5282;47.052;15.458;2023-09-19T11:44:32;97469.97;;;26.95;88.86
10470;BME280;5282;47.052;15.458;2023-09-19T11:47:02;97467.47;;;26.93;86.38
10470;BME280;5282;47.052;15.458;2023-09-19T11:49:30;97468.56;;;26.92;62.32
10470;BME280;5282;47.052;15.458;2023-09-19T11:52:00;97467.19;;;26.90;69.88
10470;BME280;5282;47.052;15.458;2023-09-19T11:54:31;97456.66;;;26.76;65.53
10470;BME280;5282;47.052;15.458;2023-09-19T11:56:59;97455.59;;;26.83;68.83
10470;BME280;5282;47.052;15.458;2023-09-19T11:59:27;97461.41;;;26.97;69.97
10470;BME280;5282;47.052;15.458;2023-09-19T12:01:56;97454.78;;;27.03;68.42
10470;BME280;5282;47.052;15.458;2023-09-19T12:04:34;97450.34;;;27.12;67.30
10470;BME280;5282;47.052;15.458;2023-09-19T12:07:06;97450.63;;;27.10;69.26
10470;BME280;5282;47.052;15.458;2023-09-19T12:09:39;97451.72;;;26.73;66.87
10470;BME280;5282;47.052;15.458;2023-09-19T12:12:08;97448.72;;;26.80;72.78
10470;BME280;5282;47.052;15.458;2023-09-19T12:14:38;97446.47;;;26.92;69.39
10470;BME280;5282;47.052;15.458;2023-09-19T12:17:07;97440.41;;;27.01;66.07
10470;BME280;5282;47.052;15.458;2023-09-19T12:19:34;97441.78;;;26.98;62.91
10470;BME280;5282;47.052;15.458;2023-09-19T12:22:02;97439.59;;;26.85;62.46
10470;BME280;5282;47.052;15.458;2023-09-19T12:24:32;97436.81;;;26.79;65.37
10470;BME280;5282;47.052;15.458;2023-09-19T12:27:03;97438.19;;;26.82;63.94
10470;BME280;5282;47.052;15.458;2023-09-19T12:29:32;97437.66;;;26.80;63.87
10470;BME280;5282;47.052;15.458;2023-09-19T12:32:08;97441.25;;;26.96;64.81
10470;BME280;5282;47.052;15.458;2023-09-19T12:34:35;97441.22;;;27.01;63.85
10470;BME280;5282;47.052;15.458;2023-09-19T12:37:09;97439.03;;;26.93;61.94
10470;BME280;5282;47.052;15.458;2023-09-19T12:39:40;97439.84;;;26.93;62.72
10470;BME280;5282;47.052;15.458;2023-09-19T12:42:09;97449.53;;;27.01;63.65
10470;BME280;5282;47.052;15.458;2023-09-19T12:44:41;97448.16;;;26.78;60.24
10470;BME280;5282;47.052;15.458;2023-09-19T12:47:10;97441.44;;;26.43;62.40
10470;BME280;5282;47.052;15.458;2023-09-19T12:50:08;97442.78;;;26.25;68.30
10470;BME280;5282;47.052;15.458;2023-09-19T12:52:39;97439.25;;;26.55;59.38
10470;BME280;5282;47.052;15.458;2023-09-19T12:55:19;97441.19;;;26.39;57.59
10470;BME280;5282;47.052;15.458;2023-09-19T12:57:56;97445.81;;;26.28;59.31
10470;BME280;5282;47.052;15.458;2023-09-19T13:00:32;97440.00;;;26.14;61.35
10470;BME280;5282;47.052;15.458;2023-09-19T13:03:13;97441.84;;;26.03;60.55
10470;BME280;5282;47.052;15.458;2023-09-19T13:05:51;97448.09;;;25.78;62.11